Time;durP1;ratioP1;P1;durP2;ratioP2;P2;SDS_P1;SDS_P2;PMS_P1;PMS_P2;Temp;Humidity;BMP_temperature;BMP_pressure;BME280_temperature;BME280_humidity;BME280_pressure;Samples;Min_cycle;Max_cycle;Signal;HPM_P1;HPM_P2
2023/04/14 00:00:17;;;;;;;10.73;3.22;;;7.30;99.90;;;;;;4993679;28;20038;-71
2023/04/14 00:02:43;;;;;;;12.20;3.42;;;7.30;99.90;;;;;;4993912;28;20069;-71
2023/04/14 00:05:09;;;;;;;8.23;2.60;;;7.40;99.90;;;;;;4993055;28;20494;-71
2023/04/14 00:07:34;;;;;;;5.72;2.88;;;7.30;99.90;;;;;;4992282;28;20048;-71
2023/04/14 00:10:00;;;;;;;6.68;2.70;;;7.30;99.90;;;;;;4992639;28;20475;-71
2023/04/14 00:12:26;;;;;;;7.32;2.65;;;7.30;99.90;;;;;;4992093;28;20041;-71
2023/04/14 00:14:51;;;;;;;8.65;2.95;;;7.30;99.90;;;;;;4992755;28;20030;-71
2023/04/14 00:17:17;;;;;;;11.13;2.97;;;7.30;99.90;;;;;;4993068;28;20037;-71
2023/04/14 00:19:42;;;;;;;3.65;2.22;;;7.30;99.90;;;;;;5008320;28;20038;-71
2023/04/14 00:22:08;;;;;;;10.10;2.67;;;7.30;99.90;;;;;;4992697;28;20026;-71
2023/04/14 00:24:39;;;;;;;6.25;2.10;;;7.30;99.90;;;;;;4993553;28;20034;-72
2023/04/14 00:27:05;;;;;;;6.82;2.50;;;7.20;99.90;;;;;;5007916;28;20479;-72
2023/04/14 00:29:31;;;;;;;6.32;2.35;;;7.20;99.90;;;;;;5008361;28;20030;-71
2023/04/14 00:31:57;;;;;;;8.85;2.70;;;7.20;99.90;;;;;;5007676;28;20383;-71
2023/04/14 00:34:22;;;;;;;6.18;2.22;;;7.20;99.90;;;;;;4993108;28;20084;-71
2023/04/14 00:36:48;;;;;;;12.57;3.10;;;7.10;99.90;;;;;;4992590;28;20117;-71
2023/04/14 00:39:14;;;;;;;11.57;2.60;;;7.10;99.90;;;;;;4991715;28;20468;-72
2023/04/14 00:41:40;;;;;;;7.70;2.60;;;7.20;99.90;;;;;;5008301;28;20030;-71
2023/04/14 00:44:05;;;;;;;8.98;2.10;;;7.20;99.90;;;;;;4997025;28;20392;-71
2023/04/14 00:46:31;;;;;;;7.10;2.40;;;7.20;99.90;;;;;;4999915;28;20168;-71
2023/04/14 00:48:57;;;;;;;7.43;2.50;;;7.20;99.90;;;;;;4997728;28;20468;-71
2023/04/14 00:51:23;;;;;;;5.95;2.10;;;7.20;99.90;;;;;;5014863;28;20026;-72
2023/04/14 00:53:52;;;;;;;7.43;2.03;;;7.10;99.90;;;;;;4997795;28;20037;-71
2023/04/14 00:56:17;;;;;;;9.25;2.30;;;7.10;99.90;;;;;;4999468;28;20088;-71
2023/04/14 00:58:43;;;;;;;8.23;2.60;;;7.20;99.90;;;;;;5014478;28;20031;-72
2023/04/14 01:01:09;;;;;;;9.27;2.00;;;7.10;99.90;;;;;;4998768;28;20400;-71
2023/04/14 01:03:35;;;;;;;5.53;2.08;;;7.20;99.90;;;;;;4999390;28;20423;-72
2023/04/14 01:06:01;;;;;;;6.53;1.80;;;7.20;99.90;;;;;;4997841;28;20034;-72
2023/04/14 01:08:27;;;;;;;6.10;2.10;;;7.10;99.90;;;;;;4999455;28;20030;-72
2023/04/14 01:11:30;;;;;;;5.15;1.90;;;7.10;99.90;;;;;;4998417;28;20080;-71
2023/04/14 01:14:21;;;;;;;6.32;2.22;;;7.00;99.90;;;;;;4997507;28;20089;-71
2023/04/14 01:16:51;;;;;;;6.23;2.17;;;7.10;99.90;;;;;;4998219;28;20030;-71
2023/04/14 01:19:48;;;;;;;6.28;2.13;;;7.00;99.90;;;;;;4998064;28;20317;-71
2023/04/14 01:22:17;;;;;;;8.02;1.98;;;7.00;99.90;;;;;;4998660;28;20033;-71
2023/04/14 01:25:05;;;;;;;8.65;1.90;;;7.00;99.90;;;;;;4997915;28;20038;-71
2023/04/14 01:27:56;;;;;;;4.57;1.67;;;7.00;99.90;;;;;;4999274;28;20045;-71
2023/04/14 01:30:47;;;;;;;10.27;1.63;;;7.00;99.90;;;;;;4999191;28;20391;-71
2023/04/14 01:33:19;;;;;;;9.30;1.80;;;6.90;99.90;;;;;;4998610;28;20041;-71
2023/04/14 01:35:50;;;;;;;7.82;1.73;;;7.00;99.90;;;;;;4998084;28;20034;-71
2023/04/14 01:38:26;;;;;;;6.70;2.43;;;7.00;99.90;;;;;;4997149;28;20085;-71
2023/04/14 01:40:55;;;;;;;7.93;1.80;;;7.00;99.90;;;;;;4997515;28;20412;-71
2023/04/14 01:43:25;;;;;;;5.70;1.83;;;7.00;99.90;;;;;;4998722;28;20086;-71
2023/04/14 01:45:54;;;;;;;8.00;1.60;;;7.00;99.90;;;;;;5014109;28;20029;-72
2023/04/14 01:48:20;;;;;;;7.57;2.13;;;7.10;99.90;;;;;;4997717;28;20037;-72
2023/04/14 01:50:47;;;;;;;7.90;1.70;;;7.00;99.90;;;;;;4997405;28;20026;-71
2023/04/14 01:53:15;;;;;;;5.60;2.10;;;7.00;99.90;;;;;;4997126;28;20034;-72
2023/04/14 01:55:43;;;;;;;7.25;1.90;;;7.00;99.90;;;;;;4995372;28;20113;-72
2023/04/14 01:58:09;;;;;;;6.95;2.15;;;7.10;99.90;;;;;;4995379;28;20022;-71
2023/04/14 02:00:37;;;;;;;7.25;1.85;;;7.00;99.90;;;;;;4994541;28;20076;-71
2023/04/14 02:03:05;;;;;;;7.32;2.10;;;7.00;99.90;;;;;;4993943;28;20031;-71
2023/04/14 02:05:34;;;;;;;7.05;1.98;;;7.00;99.90;;;;;;4994426;28;20030;-71
2023/04/14 02:08:00;;;;;;;6.45;2.22;;;7.00;99.90;;;;;;4993883;28;20054;-71
2023/04/14 02:10:27;;;;;;;9.98;2.55;;;6.90;99.90;;;;;;4994416;28;20030;-71
2023/04/14 02:12:56;;;;;;;10.52;2.38;;;6.90;99.90;;;;;;4995721;28;20030;-71
2023/04/14 02:15:24;;;;;;;5.65;2.03;;;6.90;99.90;;;;;;4995707;28;20073;-72
2023/04/14 02:17:51;;;;;;;8.40;2.10;;;6.90;99.90;;;;;;4995493;28;20026;-72
2023/04/14 02:20:20;;;;;;;9.27;2.13;;;6.80;99.90;;;;;;4994841;28;20038;-71
2023/04/14 02:22:45;;;;;;;6.68;2.05;;;6.80;99.90;;;;;;4994231;28;20054;-71
2023/04/14 02:25:11;;;;;;;5.65;1.63;;;6.70;99.90;;;;;;5009876;28;20061;-71
2023/04/14 02:27:43;;;;;;;5.22;2.08;;;6.70;99.90;;;;;;4995333;28;20019;-71
2023/04/14 02:30:15;;;;;;;4.38;1.83;;;6.70;99.90;;;;;;4993471;28;20038;-71
2023/04/14 02:32:45;;;;;;;6.65;1.95;;;6.60;99.90;;;;;;4993967;28;20081;-71
2023/04/14 02:35:20;;;;;;;9.15;2.42;;;6.60;99.90;;;;;;4993448;28;20026;-72
2023/04/14 02:37:49;;;;;;;4.93;1.88;;;6.60;99.90;;;;;;4995024;28;20031;-72
2023/04/14 02:40:20;;;;;;;7.80;2.20;;;6.50;99.90;;;;;;4993145;28;20324;-71
2023/04/14 02:42:49;;;;;;;7.10;1.80;;;6.50;99.90;;;;;;4993572;28;20184;-72
2023/04/14 02:45:21;;;;;;;11.50;2.83;;;6.50;99.90;;;;;;4993235;28;20609;-71
2023/04/14 02:47:49;;;;;;;;;;;6.50;99.90;;;;;;4995578;28;20161;-71
2023/04/14 02:50:17;;;;;;;9.10;2.60;;;6.40;99.90;;;;;;4993109;28;19964;-71
2023/04/14 02:52:46;;;;;;;8.07;2.30;;;6.30;99.90;;;;;;4994901;28;20026;-71
2023/04/14 02:55:12;;;;;;;6.50;2.70;;;6.30;99.90;;;;;;4994254;28;20023;-71
2023/04/14 02:57:38;;;;;;;7.00;2.20;;;6.30;99.90;;;;;;4994852;28;20109;-72
2023/04/14 03:00:05;;;;;;;5.40;2.10;;;6.30;99.90;;;;;;4994134;28;20490;-71
2023/04/14 03:02:32;;;;;;;6.95;1.95;;;6.20;99.90;;;;;;4993436;28;20365;-71
2023/04/14 03:04:58;;;;;;;6.47;2.03;;;6.20;99.90;;;;;;4994127;28;20106;-71
2023/04/14 03:07:26;;;;;;;6.73;1.97;;;6.20;99.90;;;;;;5009577;28;20050;-71
2023/04/14 03:09:53;;;;;;;7.90;2.27;;;6.20;99.90;;;;;;4994599;28;20030;-71
2023/04/14 03:12:19;;;;;;;7.17;1.73;;;6.20;99.90;;;;;;4993689;28;20026;-71
2023/04/14 03:14:46;;;;;;;2.70;1.60;;;6.10;99.90;;;;;;4994561;28;20038;-71
2023/04/14 03:17:13;;;;;;;8.03;2.20;;;6.20;99.90;;;;;;4992552;28;20026;-71
2023/04/14 03:19:40;;;;;;;7.53;1.73;;;6.10;99.90;;;;;;5009465;28;20438;-71
2023/04/14 03:22:09;;;;;;;5.17;1.70;;;6.10;99.90;;;;;;4993781;28;20029;-71
2023/04/14 03:24:36;;;;;;;6.40;1.70;;;6.10;99.90;;;;;;4993004;28;20472;-71
2023/04/14 03:27:09;;;;;;;7.87;2.00;;;6.10;99.90;;;;;;4992383;28;20030;-71
2023/04/14 03:29:47;;;;;;;5.83;1.70;;;6.00;99.90;;;;;;4994396;28;20494;-72
2023/04/14 03:32:16;;;;;;;7.07;2.00;;;6.00;99.90;;;;;;4993614;28;20028;-71
2023/04/14 03:34:45;;;;;;;7.47;2.03;;;6.00;99.90;;;;;;5009194;28;20053;-71
2023/04/14 03:37:15;;;;;;;7.30;2.07;;;6.00;99.90;;;;;;4992206;28;20034;-71
2023/04/14 03:39:42;;;;;;;4.77;1.67;;;6.00;99.90;;;;;;4992779;28;20126;-71
2023/04/14 03:42:10;;;;;;;6.97;1.83;;;6.00;99.90;;;;;;4991655;28;20041;-71
2023/04/14 03:44:39;;;;;;;7.50;2.00;;;6.00;99.90;;;;;;4993071;28;20121;-71
2023/04/14 03:47:07;;;;;;;4.53;1.67;;;6.00;99.90;;;;;;4992085;28;20460;-71
2023/04/14 03:49:36;;;;;;;9.13;2.53;;;5.90;99.90;;;;;;4992608;28;20027;-71
2023/04/14 03:52:09;;;;;;;7.30;1.80;;;6.00;99.90;;;;;;4992925;28;20054;-71
2023/04/14 03:54:37;;;;;;;4.83;2.10;;;6.00;99.90;;;;;;4993770;28;20065;-71
2023/04/14 03:57:06;;;;;;;6.30;1.57;;;5.90;99.90;;;;;;4992969;28;20030;-71
2023/04/14 03:59:34;;;;;;;5.37;1.53;;;5.90;99.90;;;;;;4992276;28;20558;-72
2023/04/14 04:02:01;;;;;;;8.40;2.23;;;5.90;99.90;;;;;;4992378;28;20034;-71
2023/04/14 04:04:29;;;;;;;5.33;1.70;;;5.80;99.90;;;;;;4993656;28;20464;-71
2023/04/14 04:06:56;;;;;;;7.13;1.90;;;5.80;99.90;;;;;;4992281;28;20024;-72
2023/04/14 04:09:23;;;;;;;7.57;1.77;;;5.80;99.90;;;;;;4992967;28;20153;-71
2023/04/14 04:11:51;;;;;;;6.57;1.80;;;5.80;99.90;;;;;;4993658;28;20037;-71
2023/04/14 04:14:20;;;;;;;4.83;1.80;;;5.80;99.90;;;;;;4991558;28;20034;-71
2023/04/14 04:16:48;;;;;;;6.37;1.57;;;5.80;99.90;;;;;;4992141;28;20076;-71
2023/04/14 04:19:17;;;;;;;4.97;1.60;;;5.80;99.90;;;;;;4990999;28;20065;-71
2023/04/14 04:21:44;;;;;;;8.53;2.10;;;5.80;99.90;;;;;;4992050;28;20153;-71
2023/04/14 04:24:12;;;;;;;5.30;1.90;;;5.90;99.90;;;;;;4992696;28;20029;-71
2023/04/14 04:26:38;;;;;;;6.93;1.70;;;5.80;99.90;;;;;;4992024;28;20022;-72
2023/04/14 04:29:04;;;;;;;3.90;1.90;;;5.80;99.90;;;;;;4992713;28;20348;-71
2023/04/14 04:31:31;;;;;;;5.00;1.80;;;5.80;99.90;;;;;;4992944;28;20527;-71
2023/04/14 04:33:58;;;;;;;8.90;2.10;;;5.90;99.90;;;;;;4992238;28;20077;-71
2023/04/14 04:36:30;;;;;;;10.43;2.23;;;5.80;99.90;;;;;;4991282;28;20022;-71
2023/04/14 04:38:56;;;;;;;7.37;2.20;;;5.80;99.90;;;;;;4993089;28;20038;-71
2023/04/14 04:41:22;;;;;;;6.67;2.10;;;5.80;99.90;;;;;;4991265;28;20027;-72
2023/04/14 04:43:48;;;;;;;5.60;2.57;;;5.80;99.90;;;;;;4992757;28;20078;-71
2023/04/14 04:46:39;;;;;;;6.73;1.77;;;5.80;99.90;;;;;;4991290;28;20116;-71
2023/04/14 04:49:04;;;;;;;6.90;2.57;;;5.80;99.90;;;;;;4991182;28;20080;-71
2023/04/14 04:51:30;;;;;;;6.67;2.27;;;5.90;99.90;;;;;;4992982;28;20105;-71
2023/04/14 04:53:56;;;;;;;7.17;1.80;;;5.80;99.90;;;;;;4992737;28;20468;-72
2023/04/14 04:56:21;;;;;;;4.17;1.73;;;5.80;99.90;;;;;;4991138;28;20375;-71
2023/04/14 04:58:47;;;;;;;8.80;2.00;;;5.90;99.90;;;;;;4991773;28;20031;-71
2023/04/14 05:01:14;;;;;;;10.40;2.33;;;5.80;99.90;;;;;;4991063;28;20045;-72
2023/04/14 05:03:40;;;;;;;9.00;2.23;;;5.70;99.90;;;;;;4991681;28;20049;-71
2023/04/14 05:06:06;;;;;;;9.23;2.50;;;5.80;99.90;;;;;;4992310;28;20451;-71
2023/04/14 05:08:31;;;;;;;9.67;2.90;;;5.70;99.90;;;;;;4991592;28;20027;-71
2023/04/14 05:10:57;;;;;;;8.47;2.07;;;5.80;99.90;;;;;;4992450;28;20105;-71
2023/04/14 05:13:22;;;;;;;6.50;2.40;;;5.80;99.90;;;;;;4991975;28;20395;-71
2023/04/14 05:15:48;;;;;;;9.07;2.30;;;5.80;99.90;;;;;;4992547;28;20030;-71
2023/04/14 05:18:14;;;;;;;6.60;2.00;;;5.80;99.90;;;;;;4991941;28;20033;-71
2023/04/14 05:20:40;;;;;;;6.27;2.17;;;5.80;99.90;;;;;;4991702;28;20027;-72
2023/04/14 05:23:06;;;;;;;9.43;2.37;;;5.80;99.90;;;;;;4992149;28;20030;-71
2023/04/14 05:25:31;;;;;;;8.60;2.30;;;5.90;99.90;;;;;;4991228;28;20065;-71
2023/04/14 05:27:57;;;;;;;6.23;2.37;;;5.90;99.90;;;;;;4993123;28;20061;-72
2023/04/14 05:30:23;;;;;;;8.97;2.60;;;5.90;99.90;;;;;;4992276;28;20117;-72
2023/04/14 05:32:49;;;;;;;6.67;2.67;;;6.00;99.90;;;;;;4995015;28;20034;-73
2023/04/14 05:35:15;;;;;;;6.90;2.23;;;6.00;99.90;;;;;;4994537;28;20388;-72
2023/04/14 05:37:41;;;;;;;7.07;2.10;;;6.10;99.90;;;;;;4995276;28;20026;-72
2023/04/14 05:40:07;;;;;;;5.43;2.20;;;6.10;99.90;;;;;;4994338;28;20391;-72
2023/04/14 05:42:33;;;;;;;6.13;2.50;;;6.10;99.90;;;;;;4994602;28;20152;-72
2023/04/14 05:44:58;;;;;;;9.53;2.30;;;6.10;99.90;;;;;;4996260;28;20480;-72
2023/04/14 05:47:24;;;;;;;6.57;2.17;;;6.20;99.90;;;;;;4994266;28;20037;-72
2023/04/14 05:49:49;;;;;;;6.63;2.10;;;6.20;99.90;;;;;;4996054;28;20104;-72
2023/04/14 05:52:15;;;;;;;9.47;2.47;;;6.20;99.90;;;;;;4994222;28;20072;-72
2023/04/14 05:54:41;;;;;;;5.23;2.10;;;6.20;99.90;;;;;;4996102;28;20372;-71
2023/04/14 05:57:06;;;;;;;7.43;2.10;;;6.20;99.90;;;;;;4994702;28;20030;-72
2023/04/14 05:59:32;;;;;;;9.30;2.07;;;6.30;99.90;;;;;;4995582;28;20441;-71
2023/04/14 06:01:58;;;;;;;8.40;2.50;;;6.30;99.90;;;;;;4995850;28;20042;-71
2023/04/14 06:04:24;;;;;;;6.90;2.30;;;6.40;99.90;;;;;;4993674;28;20057;-72
2023/04/14 06:06:50;;;;;;;7.20;2.37;;;6.40;99.90;;;;;;4995786;28;20065;-71
2023/04/14 06:09:15;;;;;;;11.30;2.50;;;6.40;99.90;;;;;;4995186;28;20031;-71
2023/04/14 06:11:41;;;;;;;5.53;2.43;;;6.40;99.90;;;;;;4995722;28;20073;-71
2023/04/14 06:14:06;;;;;;;9.50;2.33;;;6.50;99.90;;;;;;4995378;28;20038;-72
2023/04/14 06:16:32;;;;;;;6.50;2.50;;;6.50;99.90;;;;;;4993741;28;20483;-71
2023/04/14 06:18:58;;;;;;;4.80;2.20;;;6.60;99.90;;;;;;4995531;28;20037;-72
2023/04/14 06:21:23;;;;;;;11.43;2.80;;;6.70;99.90;;;;;;4994749;28;20422;-72
2023/04/14 06:23:49;;;;;;;9.77;2.83;;;6.70;99.90;;;;;;4995544;28;20034;-71
2023/04/14 06:26:15;;;;;;;5.73;2.27;;;6.70;99.90;;;;;;4993621;28;20030;-71
2023/04/14 06:28:40;;;;;;;4.73;2.00;;;6.70;99.90;;;;;;4994072;28;20456;-72
2023/04/14 06:31:06;;;;;;;9.67;2.57;;;6.80;99.90;;;;;;4993975;28;20026;-71
2023/04/14 06:33:32;;;;;;;8.40;2.67;;;6.80;99.90;;;;;;4993414;28;20037;-71
2023/04/14 06:35:57;;;;;;;6.35;2.30;;;6.90;99.90;;;;;;4993998;28;20023;-71
2023/04/14 06:38:24;;;;;;;7.63;2.47;;;6.90;99.90;;;;;;4993305;28;20030;-71
2023/04/14 06:40:50;;;;;;;6.97;2.60;;;7.00;99.90;;;;;;4993221;28;20030;-71
2023/04/14 06:43:16;;;;;;;5.65;2.38;;;7.00;99.90;;;;;;4992597;28;20439;-71
2023/04/14 06:45:42;;;;;;;5.67;2.40;;;7.00;99.90;;;;;;4995046;28;20061;-71
2023/04/14 06:48:10;;;;;;;9.63;2.50;;;7.10;99.90;;;;;;4994946;28;20054;-71
2023/04/14 06:50:35;;;;;;;6.72;2.47;;;7.10;99.90;;;;;;4993702;28;20088;-71
2023/04/14 06:53:01;;;;;;;10.75;2.65;;;7.20;99.90;;;;;;4993682;28;20476;-71
2023/04/14 06:55:27;;;;;;;9.18;2.08;;;7.20;99.90;;;;;;4994289;28;20027;-72
2023/04/14 06:57:52;;;;;;;9.15;2.38;;;7.30;99.90;;;;;;4993565;28;20459;-72
2023/04/14 07:00:19;;;;;;;6.38;1.92;;;7.30;99.90;;;;;;4992860;28;20034;-71
2023/04/14 07:02:44;;;;;;;5.07;2.38;;;7.40;99.90;;;;;;4994729;28;20073;-72
2023/04/14 07:05:10;;;;;;;5.85;1.88;;;7.40;99.90;;;;;;4993469;28;20475;-72
2023/04/14 07:07:36;;;;;;;5.20;1.95;;;7.50;99.90;;;;;;4993054;28;20057;-72
2023/04/14 07:10:02;;;;;;;6.30;1.75;;;7.50;99.90;;;;;;4993397;28;20069;-71
2023/04/14 07:12:28;;;;;;;6.20;2.40;;;7.50;99.90;;;;;;4993562;28;20050;-72
2023/04/14 07:14:53;;;;;;;6.65;2.00;;;7.60;99.90;;;;;;4993213;28;20093;-72
2023/04/14 07:17:19;;;;;;;8.25;1.98;;;7.60;99.90;;;;;;4993814;28;20059;-71
2023/04/14 07:19:45;;;;;;;7.45;1.80;;;7.70;99.90;;;;;;4993155;28;20088;-72
2023/04/14 07:22:11;;;;;;;6.78;1.92;;;7.70;99.90;;;;;;4993113;28;20035;-72
2023/04/14 07:24:37;;;;;;;6.03;2.17;;;7.80;99.90;;;;;;4994298;28;20026;-72
2023/04/14 07:27:06;;;;;;;9.13;2.13;;;7.80;99.90;;;;;;4992808;28;20026;-72
2023/04/14 07:29:32;;;;;;;7.18;2.15;;;7.90;99.90;;;;;;4992234;28;20045;-71
2023/04/14 07:31:58;;;;;;;6.97;2.45;;;7.90;99.90;;;;;;4994570;28;20037;-71
2023/04/14 07:34:23;;;;;;;5.90;2.15;;;7.90;99.90;;;;;;4992271;28;20031;-71
2023/04/14 07:36:49;;;;;;;10.52;1.92;;;8.00;99.90;;;;;;4992807;28;20121;-71
2023/04/14 07:39:15;;;;;;;6.03;1.77;;;8.00;99.90;;;;;;4992074;28;20038;-71
2023/04/14 07:41:41;;;;;;;4.65;1.75;;;8.10;99.90;;;;;;4992556;28;20042;-71
2023/04/14 07:44:07;;;;;;;6.47;2.08;;;8.10;99.90;;;;;;4992730;28;20484;-71
2023/04/14 07:46:32;;;;;;;4.32;1.40;;;8.20;99.90;;;;;;4993274;28;20616;-71
2023/04/14 07:48:58;;;;;;;6.28;1.50;;;8.20;99.90;;;;;;4992639;28;20068;-71
2023/04/14 07:51:23;;;;;;;5.38;1.63;;;8.20;99.90;;;;;;4993546;28;20034;-72
2023/04/14 07:53:51;;;;;;;7.50;1.65;;;8.20;99.90;;;;;;4992961;28;20388;-72
2023/04/14 07:56:17;;;;;;;8.48;1.60;;;8.40;99.90;;;;;;4993199;28;20026;-72
2023/04/14 07:58:43;;;;;;;6.90;1.67;;;8.40;99.90;;;;;;4992317;28;20037;-72
2023/04/14 08:01:08;;;;;;;8.43;1.90;;;8.40;99.90;;;;;;4992374;28;20375;-71
2023/04/14 08:03:37;;;;;;;9.75;1.45;;;8.40;99.90;;;;;;4991714;28;20038;-71
2023/04/14 08:06:06;;;;;;;4.75;1.80;;;8.40;99.90;;;;;;4992391;28;20049;-72
2023/04/14 08:08:33;;;;;;;6.85;1.20;;;8.50;99.90;;;;;;4992946;28;20034;-72
2023/04/14 08:10:59;;;;;;;3.88;0.98;;;8.50;99.90;;;;;;4992432;28;20034;-71
2023/04/14 08:13:25;;;;;;;5.00;1.40;;;8.60;99.90;;;;;;4992837;28;20464;-71
2023/04/14 08:15:50;;;;;;;6.80;1.63;;;8.60;99.90;;;;;;4991961;28;20540;-71
2023/04/14 08:18:16;;;;;;;4.53;1.40;;;8.70;99.90;;;;;;4975461;28;20121;-72
2023/04/14 08:20:42;;;;;;;5.05;1.48;;;8.70;99.90;;;;;;4992905;28;20034;-72
2023/04/14 08:23:07;;;;;;;6.93;1.27;;;8.70;99.90;;;;;;4991866;28;20026;-72
2023/04/14 08:25:33;;;;;;;7.65;1.42;;;8.80;99.90;;;;;;4991060;28;20460;-71
2023/04/14 08:27:59;;;;;;;6.05;1.50;;;8.80;99.90;;;;;;4993003;28;20129;-72
2023/04/14 08:30:25;;;;;;;5.47;1.95;;;8.90;99.90;;;;;;4990873;28;20041;-72
2023/04/14 08:32:50;;;;;;;5.20;1.40;;;8.90;99.90;;;;;;4992904;28;20058;-71
2023/04/14 08:35:17;;;;;;;4.60;1.33;;;8.90;99.90;;;;;;4991436;28;20034;-71
2023/04/14 08:37:42;;;;;;;5.47;1.42;;;9.00;99.90;;;;;;4992310;28;20034;-72
2023/04/14 08:40:09;;;;;;;4.53;1.35;;;9.00;99.90;;;;;;4992757;28;20081;-71
2023/04/14 08:42:35;;;;;;;7.18;1.40;;;9.10;99.90;;;;;;4990927;28;20046;-72
2023/04/14 08:45:01;;;;;;;6.47;1.52;;;9.10;99.90;;;;;;4993248;28;20109;-72
2023/04/14 08:47:31;;;;;;;6.22;1.92;;;9.10;99.90;;;;;;4992192;28;20034;-71
2023/04/14 08:50:16;;;;;;;6.03;1.30;;;9.20;99.90;;;;;;4991881;28;20435;-72
2023/04/14 08:52:44;;;;;;;4.80;1.15;;;9.20;99.90;;;;;;4991389;28;20077;-71
2023/04/14 08:55:11;;;;;;;6.18;1.52;;;9.20;99.90;;;;;;4991713;28;20033;-72
2023/04/14 08:57:37;;;;;;;5.60;1.45;;;9.20;99.90;;;;;;4991217;28;20034;-72
2023/04/14 09:00:03;;;;;;;4.93;1.23;;;9.30;99.90;;;;;;4991642;28;20042;-72
2023/04/14 09:02:31;;;;;;;3.17;1.50;;;9.40;99.90;;;;;;4992366;28;20033;-72
2023/04/14 09:04:58;;;;;;;5.45;1.40;;;9.40;99.90;;;;;;4994079;28;20121;-72
2023/04/14 09:07:24;;;;;;;8.73;1.40;;;9.50;99.90;;;;;;4996259;28;20491;-72
2023/04/14 09:09:50;;;;;;;7.45;1.48;;;9.40;99.90;;;;;;4995458;28;20034;-72
2023/04/14 09:12:18;;;;;;;6.47;1.73;;;9.50;99.90;;;;;;4995287;28;20038;-72
2023/04/14 09:14:45;;;;;;;4.80;1.20;;;9.60;99.90;;;;;;4995396;28;20034;-72
2023/04/14 09:17:11;;;;;;;5.03;1.40;;;9.60;99.90;;;;;;4996682;28;20379;-72
2023/04/14 09:19:37;;;;;;;8.52;1.98;;;9.60;99.90;;;;;;4994634;28;20034;-72
2023/04/14 09:22:03;;;;;;;6.38;1.75;;;9.70;99.90;;;;;;4995379;28;20106;-72
2023/04/14 09:24:32;;;;;;;7.13;1.63;;;9.70;99.90;;;;;;4996050;28;20522;-71
2023/04/14 09:27:02;;;;;;;6.63;1.50;;;9.70;99.90;;;;;;4996548;28;20109;-72
2023/04/14 09:29:28;;;;;;;6.72;1.25;;;9.80;99.90;;;;;;4995882;28;20479;-72
2023/04/14 09:31:54;;;;;;;3.15;1.00;;;9.80;99.90;;;;;;4996456;28;20023;-72
2023/04/14 09:34:20;;;;;;;5.10;1.55;;;9.90;99.90;;;;;;4995836;28;20081;-72
2023/04/14 09:37:18;;;;;;;6.15;1.50;;;10.00;99.90;;;;;;4996340;28;20503;-72
2023/04/14 09:39:52;;;;;;;5.63;1.17;;;10.00;99.90;;;;;;4962921;28;20476;-71
2023/04/14 09:42:18;;;;;;;2.65;1.02;;;10.00;99.90;;;;;;4995605;28;20034;-72
2023/04/14 09:44:53;;;;;;;4.15;1.52;;;10.00;99.90;;;;;;4995667;28;20045;-71
2023/04/14 09:47:20;;;;;;;3.60;1.00;;;10.10;99.90;;;;;;4995079;28;20105;-72
2023/04/14 09:49:56;;;;;;;9.82;1.48;;;10.10;99.90;;;;;;4994917;28;20030;-72
2023/04/14 09:52:34;;;;;;;4.63;1.30;;;10.10;99.90;;;;;;4994172;28;20057;-71
2023/04/14 09:55:00;;;;;;;8.05;1.30;;;10.10;99.90;;;;;;4996106;28;20068;-71
2023/04/14 09:57:27;;;;;;;4.60;1.17;;;10.20;99.90;;;;;;4994154;28;20457;-72
2023/04/14 09:59:53;;;;;;;3.05;1.08;;;10.30;99.90;;;;;;4995878;28;20037;-72
2023/04/14 10:02:18;;;;;;;2.53;1.13;;;10.30;99.90;;;;;;4994729;28;20026;-72
2023/04/14 10:04:44;;;;;;;5.55;1.17;;;10.40;99.90;;;;;;4993991;28;20030;-71
2023/04/14 10:07:11;;;;;;;3.42;1.20;;;10.40;99.90;;;;;;4994581;28;20483;-72
2023/04/14 10:09:37;;;;;;;2.05;0.90;;;10.40;99.90;;;;;;4995220;28;20026;-72
2023/04/14 10:12:12;;;;;;;3.85;1.08;;;10.50;99.90;;;;;;4995900;28;20058;-72
2023/04/14 10:14:39;;;;;;;5.07;1.30;;;10.50;99.90;;;;;;4995115;28;20053;-72
2023/04/14 10:17:08;;;;;;;3.22;1.02;;;10.60;99.90;;;;;;4993616;28;20034;-72
2023/04/14 10:19:36;;;;;;;5.60;1.02;;;10.60;99.90;;;;;;4994895;28;20045;-72
2023/04/14 10:22:03;;;;;;;6.50;1.40;;;10.60;99.90;;;;;;4995537;28;20023;-72
2023/04/14 10:24:29;;;;;;;3.17;0.98;;;10.60;99.90;;;;;;4994936;28;20027;-72
2023/04/14 10:26:56;;;;;;;2.78;0.98;;;10.60;99.90;;;;;;4995478;28;20027;-72
2023/04/14 10:29:22;;;;;;;4.57;0.85;;;10.70;99.50;;;;;;4995455;28;20030;-71
2023/04/14 10:32:00;;;;;;;1.77;0.80;;;10.80;99.70;;;;;;4995124;28;20085;-72
2023/04/14 10:34:28;;;;;;;4.72;1.08;;;10.80;99.90;;;;;;4994811;28;20027;-72
2023/04/14 10:36:54;;;;;;;4.05;1.10;;;10.90;99.90;;;;;;4995014;28;20023;-72
2023/04/14 10:39:23;;;;;;;4.93;0.98;;;11.00;99.90;;;;;;4993864;28;20129;-72
2023/04/14 10:41:51;;;;;;;3.88;0.90;;;11.10;99.90;;;;;;4995494;28;20058;-71
2023/04/14 10:44:31;;;;;;;4.15;0.80;;;11.20;99.90;;;;;;4993517;28;20112;-72
2023/04/14 10:47:00;;;;;;;4.50;1.00;;;11.40;99.90;;;;;;4995125;28;20050;-72
2023/04/14 10:49:37;;;;;;;2.75;0.75;;;11.40;98.80;;;;;;4994471;28;20116;-72
2023/04/14 10:52:27;;;;;;;6.15;1.45;;;11.40;99.90;;;;;;4993674;28;20026;-72
2023/04/14 10:55:11;;;;;;;5.43;1.35;;;11.40;99.90;;;;;;4999448;28;20399;-71
2023/04/14 10:57:41;;;;;;;2.55;0.70;;;11.40;99.90;;;;;;4994727;28;20105;-71
2023/04/14 11:00:28;;;;;;;3.00;1.10;;;11.50;99.90;;;;;;4994543;28;20491;-72
2023/04/14 11:03:03;;;;;;;4.97;1.30;;;11.50;99.90;;;;;;4994862;28;20113;-72
2023/04/14 11:05:32;;;;;;;1.27;0.80;;;11.60;99.90;;;;;;4994437;28;20157;-72
2023/04/14 11:08:00;;;;;;;3.03;1.20;;;11.60;99.90;;;;;;4994739;28;20034;-72
2023/04/14 11:10:29;;;;;;;3.47;1.00;;;11.70;99.90;;;;;;4992923;28;20030;-71
2023/04/14 11:13:06;;;;;;;7.40;0.80;;;11.70;99.70;;;;;;4994760;28;20034;-72
2023/04/14 11:15:46;;;;;;;2.85;0.70;;;11.80;98.70;;;;;;4994077;28;20567;-72
2023/04/14 11:18:36;;;;;;;4.53;1.13;;;11.90;97.80;;;;;;4994564;28;20022;-72
2023/04/14 11:21:12;;;;;;;4.30;1.10;;;11.80;99.30;;;;;;4999751;28;20399;-72
2023/04/14 11:23:37;;;;;;;4.15;1.05;;;11.90;97.50;;;;;;4993867;28;20026;-72
2023/04/14 11:26:10;;;;;;;4.80;1.00;;;11.90;96.10;;;;;;4994410;28;20031;-72
2023/04/14 11:28:39;;;;;;;2.60;0.80;;;12.10;97.40;;;;;;4992404;28;20471;-72
2023/04/14 11:31:07;;;;;;;3.33;0.98;;;12.20;99.00;;;;;;4994599;28;20468;-72
2023/04/14 11:33:38;;;;;;;1.98;0.60;;;12.40;96.20;;;;;;4992478;28;20037;-72
2023/04/14 11:36:06;;;;;;;4.28;0.90;;;12.40;97.80;;;;;;4994479;28;20349;-72
2023/04/14 11:38:34;;;;;;;5.43;1.15;;;12.60;97.70;;;;;;4992307;28;20030;-71
2023/04/14 11:41:00;;;;;;;5.57;0.93;;;12.60;96.90;;;;;;4994019;28;20062;-72
2023/04/14 11:43:29;;;;;;;4.78;1.95;;;12.70;94.10;;;;;;4995295;28;20056;-72
2023/04/14 11:45:59;;;;;;;1.58;0.73;;;12.60;92.60;;;;;;4993413;28;20055;-72
2023/04/14 11:48:27;;;;;;;2.55;0.52;;;12.70;95.10;;;;;;4992843;28;20126;-72
2023/04/14 11:50:54;;;;;;;3.00;1.10;;;12.70;94.90;;;;;;4992832;28;20034;-72
2023/04/14 11:53:20;;;;;;;2.78;0.90;;;12.90;95.30;;;;;;4992690;28;20026;-72
2023/04/14 11:55:50;;;;;;;2.90;0.82;;;13.00;94.80;;;;;;4993228;28;20084;-72
2023/04/14 11:58:24;;;;;;;2.50;0.80;;;13.10;93.00;;;;;;4992661;28;20479;-72
2023/04/14 12:00:50;;;;;;;3.28;0.73;;;13.20;93.40;;;;;;4993064;28;20034;-72
2023/04/14 12:03:16;;;;;;;2.58;0.80;;;13.30;92.80;;;;;;4992567;28;20038;-72
2023/04/14 12:05:42;;;;;;;1.85;1.00;;;13.40;86.20;;;;;;4993100;28;20026;-72
2023/04/14 12:08:09;;;;;;;4.40;0.95;;;13.60;80.60;;;;;;4993468;28;20036;-72
2023/04/14 12:10:36;;;;;;;1.35;0.65;;;13.70;81.00;;;;;;4992664;28;20490;-72
2023/04/14 12:13:07;;;;;;;6.40;1.02;;;13.90;79.50;;;;;;4993517;28;20057;-71
2023/04/14 12:15:37;;;;;;;1.67;0.70;;;14.00;77.20;;;;;;4992936;28;20076;-72
2023/04/14 12:18:06;;;;;;;3.40;0.98;;;14.10;81.30;;;;;;4992478;28;20141;-72
2023/04/14 12:20:43;;;;;;;2.85;0.80;;;14.30;85.90;;;;;;4991492;28;20035;-72
2023/04/14 12:23:09;;;;;;;2.20;0.90;;;14.40;79.60;;;;;;4993377;28;20058;-72
2023/04/14 12:25:35;;;;;;;2.40;0.80;;;14.40;77.30;;;;;;4991584;28;20057;-71
2023/04/14 12:28:04;;;;;;;2.05;0.70;;;14.40;76.00;;;;;;4993318;28;20030;-72
2023/04/14 12:30:31;;;;;;;2.78;1.17;;;14.50;74.90;;;;;;4992715;28;20034;-72
2023/04/14 12:32:56;;;;;;;1.80;0.75;;;14.70;74.40;;;;;;4992016;28;20037;-72
2023/04/14 12:35:22;;;;;;;1.27;0.70;;;14.80;74.50;;;;;;4992097;28;20030;-72
2023/04/14 12:37:49;;;;;;;4.53;0.80;;;15.00;71.70;;;;;;4991391;28;20034;-72
2023/04/14 12:40:16;;;;;;;3.60;1.02;;;15.10;69.50;;;;;;4992481;28;20440;-72
2023/04/14 12:42:47;;;;;;;2.13;0.52;;;15.20;69.50;;;;;;4992717;28;20027;-72
2023/04/14 12:45:13;;;;;;;3.40;1.05;;;15.30;67.90;;;;;;4991673;28;20057;-72
2023/04/14 12:47:39;;;;;;;2.20;0.98;;;15.40;68.70;;;;;;4991290;28;20460;-72
2023/04/14 12:50:27;;;;;;;3.75;0.70;;;15.60;64.90;;;;;;4993131;28;20080;-72
2023/04/14 12:52:54;;;;;;;4.25;0.90;;;15.90;64.50;;;;;;4991243;28;20030;-72
2023/04/14 12:55:24;;;;;;;2.90;0.77;;;16.10;64.60;;;;;;4991804;28;20104;-72
2023/04/14 12:57:52;;;;;;;3.10;0.90;;;16.20;64.30;;;;;;4991230;28;20041;-72
2023/04/14 13:00:20;;;;;;;3.38;1.00;;;16.30;64.60;;;;;;4993076;28;20121;-72